sensor_id;sensor_type;location;lat;lon;timestamp;temperature;humidity
49379;DHT22;35254;47.990;-1.608;2023-12-20T00:02:17;20.40;51.20
49379;DHT22;35254;47.990;-1.608;2023-12-20T00:04:42;20.30;51.10
49379;DHT22;35254;47.990;-1.608;2023-12-20T00:07:08;20.40;51.10
49379;DHT22;35254;47.990;-1.608;2023-12-20T00:09:34;20.30;51.10
49379;DHT22;35254;47.990;-1.608;2023-12-20T00:11:59;20.30;51.00
49379;DHT22;35254;47.990;-1.608;2023-12-20T00:14:25;20.30;51.00
49379;DHT22;35254;47.990;-1.608;2023-12-20T00:16:50;20.40;51.00
49379;DHT22;35254;47.990;-1.608;2023-12-20T00:19:16;20.30;50.90
49379;DHT22;35254;47.990;-1.608;2023-12-20T00:21:42;20.30;51.00
49379;DHT22;35254;47.990;-1.608;2023-12-20T00:24:08;20.30;50.90
49379;DHT22;35254;47.990;-1.608;2023-12-20T00:26:33;20.30;50.90
49379;DHT22;35254;47.990;-1.608;2023-12-20T00:28:59;20.30;50.90
49379;DHT22;35254;47.990;-1.608;2023-12-20T00:31:25;20.30;50.90
49379;DHT22;35254;47.990;-1.608;2023-12-20T00:33:50;20.30;50.90
49379;DHT22;35254;47.990;-1.608;2023-12-20T00:36:16;20.30;50.90
49379;DHT22;35254;47.990;-1.608;2023-12-20T00:38:42;20.30;50.90
49379;DHT22;35254;47.990;-1.608;2023-12-20T00:41:07;20.30;51.00
49379;DHT22;35254;47.990;-1.608;2023-12-20T00:43:33;20.30;50.90
49379;DHT22;35254;47.990;-1.608;2023-12-20T00:45:58;20.40;50.90
49379;DHT22;35254;47.990;-1.608;2023-12-20T00:48:25;20.40;50.80
49379;DHT22;35254;47.990;-1.608;2023-12-20T00:50:52;20.40;50.70
49379;DHT22;35254;47.990;-1.608;2023-12-20T00:53:18;20.30;50.60
49379;DHT22;35254;47.990;-1.608;2023-12-20T00:55:45;20.40;50.60
49379;DHT22;35254;47.990;-1.608;2023-12-20T00:58:10;20.30;50.70
49379;DHT22;35254;47.990;-1.608;2023-12-20T01:00:36;20.40;50.70
49379;DHT22;35254;47.990;-1.608;2023-12-20T01:03:02;20.40;50.70
49379;DHT22;35254;47.990;-1.608;2023-12-20T01:05:27;20.40;50.60
49379;DHT22;35254;47.990;-1.608;2023-12-20T01:07:53;20.30;50.60
49379;DHT22;35254;47.990;-1.608;2023-12-20T01:10:18;20.40;50.50
49379;DHT22;35254;47.990;-1.608;2023-12-20T01:12:44;20.30;50.60
49379;DHT22;35254;47.990;-1.608;2023-12-20T01:15:10;20.30;50.50
49379;DHT22;35254;47.990;-1.608;2023-12-20T01:17:36;20.30;50.60
49379;DHT22;35254;47.990;-1.608;2023-12-20T01:20:01;20.30;50.50
49379;DHT22;35254;47.990;-1.608;2023-12-20T01:22:27;20.30;50.50
49379;DHT22;35254;47.990;-1.608;2023-12-20T01:24:53;20.30;50.50
49379;DHT22;35254;47.990;-1.608;2023-12-20T01:27:18;20.30;50.40
49379;DHT22;35254;47.990;-1.608;2023-12-20T01:29:44;20.30;50.40
49379;DHT22;35254;47.990;-1.608;2023-12-20T01:32:10;20.40;50.40
49379;DHT22;35254;47.990;-1.608;2023-12-20T01:34:35;20.30;50.40
49379;DHT22;35254;47.990;-1.608;2023-12-20T01:37:01;20.40;50.40
49379;DHT22;35254;47.990;-1.608;2023-12-20T01:39:28;20.30;50.30
49379;DHT22;35254;47.990;-1.608;2023-12-20T01:41:53;20.30;50.30
49379;DHT22;35254;47.990;-1.608;2023-12-20T01:44:19;20.40;50.30
49379;DHT22;35254;47.990;-1.608;2023-12-20T01:46:46;20.30;50.20
49379;DHT22;35254;47.990;-1.608;2023-12-20T01:49:12;20.30;50.20
49379;DHT22;35254;47.990;-1.608;2023-12-20T01:51:38;20.30;50.10
49379;DHT22;35254;47.990;-1.608;2023-12-20T01:54:04;20.30;50.10
49379;DHT22;35254;47.990;-1.608;2023-12-20T01:56:31;20.30;50.10
49379;DHT22;35254;47.990;-1.608;2023-12-20T01:58:57;20.30;50.10
49379;DHT22;35254;47.990;-1.608;2023-12-20T02:01:24;20.30;50.10
49379;DHT22;35254;47.990;-1.608;2023-12-20T02:03:50;20.20;50.00
49379;DHT22;35254;47.990;-1.608;2023-12-20T02:06:18;20.30;50.00
49379;DHT22;35254;47.990;-1.608;2023-12-20T02:08:43;20.30;50.00
49379;DHT22;35254;47.990;-1.608;2023-12-20T02:11:10;20.30;49.90
49379;DHT22;35254;47.990;-1.608;2023-12-20T02:13:36;20.20;50.00
49379;DHT22;35254;47.990;-1.608;2023-12-20T02:16:01;20.20;49.90
49379;DHT22;35254;47.990;-1.608;2023-12-20T02:18:27;20.20;49.90
49379;DHT22;35254;47.990;-1.608;2023-12-20T02:20:53;20.20;49.90
49379;DHT22;35254;47.990;-1.608;2023-12-20T02:23:19;20.20;49.90
49379;DHT22;35254;47.990;-1.608;2023-12-20T02:25:44;20.20;50.00
49379;DHT22;35254;47.990;-1.608;2023-12-20T02:28:10;20.20;50.00
49379;DHT22;35254;47.990;-1.608;2023-12-20T02:30:36;20.20;50.00
49379;DHT22;35254;47.990;-1.608;2023-12-20T02:33:03;20.20;50.00
49379;DHT22;35254;47.990;-1.608;2023-12-20T02:35:32;20.20;50.00
49379;DHT22;35254;47.990;-1.608;2023-12-20T02:37:58;20.20;49.90
49379;DHT22;35254;47.990;-1.608;2023-12-20T02:40:23;20.20;49.90
49379;DHT22;35254;47.990;-1.608;2023-12-20T02:42:49;20.20;49.90
49379;DHT22;35254;47.990;-1.608;2023-12-20T02:45:15;20.20;49.90
49379;DHT22;35254;47.990;-1.608;2023-12-20T02:47:40;20.20;49.90
49379;DHT22;35254;47.990;-1.608;2023-12-20T02:50:06;20.20;49.80
49379;DHT22;35254;47.990;-1.608;2023-12-20T02:52:32;20.20;49.80
49379;DHT22;35254;47.990;-1.608;2023-12-20T02:54:57;20.20;49.80
49379;DHT22;35254;47.990;-1.608;2023-12-20T02:57:23;20.20;49.70
49379;DHT22;35254;47.990;-1.608;2023-12-20T02:59:49;20.20;49.70
49379;DHT22;35254;47.990;-1.608;2023-12-20T03:02:14;20.20;49.70
49379;DHT22;35254;47.990;-1.608;2023-12-20T03:04:40;20.20;49.70
49379;DHT22;35254;47.990;-1.608;2023-12-20T03:07:06;20.20;49.70
49379;DHT22;35254;47.990;-1.608;2023-12-20T03:09:31;20.20;49.70
49379;DHT22;35254;47.990;-1.608;2023-12-20T03:11:57;20.20;49.70
49379;DHT22;35254;47.990;-1.608;2023-12-20T03:14:23;20.20;49.70
49379;DHT22;35254;47.990;-1.608;2023-12-20T03:16:51;20.20;49.70
49379;DHT22;35254;47.990;-1.608;2023-12-20T03:19:18;20.20;49.70
49379;DHT22;35254;47.990;-1.608;2023-12-20T03:21:44;20.20;49.70
49379;DHT22;35254;47.990;-1.608;2023-12-20T03:24:10;20.20;49.70
49379;DHT22;35254;47.990;-1.608;2023-12-20T03:26:36;20.20;49.70
49379;DHT22;35254;47.990;-1.608;2023-12-20T03:29:01;20.10;49.70
49379;DHT22;35254;47.990;-1.608;2023-12-20T03:31:27;20.20;49.70
49379;DHT22;35254;47.990;-1.608;2023-12-20T03:33:52;20.20;49.70
49379;DHT22;35254;47.990;-1.608;2023-12-20T03:36:19;20.20;49.60
49379;DHT22;35254;47.990;-1.608;2023-12-20T03:38:45;20.10;49.70
49379;DHT22;35254;47.990;-1.608;2023-12-20T03:41:11;20.20;49.70
49379;DHT22;35254;47.990;-1.608;2023-12-20T03:43:37;20.10;49.70
49379;DHT22;35254;47.990;-1.608;2023-12-20T03:46:03;20.20;49.70
49379;DHT22;35254;47.990;-1.608;2023-12-20T03:48:29;20.20;49.70
49379;DHT22;35254;47.990;-1.608;2023-12-20T03:50:55;20.20;49.70
49379;DHT22;35254;47.990;-1.608;2023-12-20T03:53:22;20.10;49.70
49379;DHT22;35254;47.990;-1.608;2023-12-20T03:55:47;20.10;49.70
49379;DHT22;35254;47.990;-1.608;2023-12-20T03:58:13;20.10;49.60
49379;DHT22;35254;47.990;-1.608;2023-12-20T04:00:39;20.20;49.70
49379;DHT22;35254;47.990;-1.608;2023-12-20T04:03:04;20.20;49.60
49379;DHT22;35254;47.990;-1.608;2023-12-20T04:05:30;20.20;49.60
49379;DHT22;35254;47.990;-1.608;2023-12-20T04:07:55;20.20;49.70
49379;DHT22;35254;47.990;-1.608;2023-12-20T04:10:21;20.20;49.60
49379;DHT22;35254;47.990;-1.608;2023-12-20T04:12:47;20.20;49.60
49379;DHT22;35254;47.990;-1.608;2023-12-20T04:15:12;20.20;49.60
49379;DHT22;35254;47.990;-1.608;2023-12-20T04:17:38;20.10;49.70
49379;DHT22;35254;47.990;-1.608;2023-12-20T04:20:04;20.10;49.60
49379;DHT22;35254;47.990;-1.608;2023-12-20T04:22:30;20.10;49.60
49379;DHT22;35254;47.990;-1.608;2023-12-20T04:24:56;20.20;49.70
49379;DHT22;35254;47.990;-1.608;2023-12-20T04:27:21;20.20;49.70
49379;DHT22;35254;47.990;-1.608;2023-12-20T04:29:47;20.20;49.70
49379;DHT22;35254;47.990;-1.608;2023-12-20T04:32:12;20.20;49.70
49379;DHT22;35254;47.990;-1.608;2023-12-20T04:34:38;20.20;49.60
49379;DHT22;35254;47.990;-1.608;2023-12-20T04:37:04;20.20;49.70
49379;DHT22;35254;47.990;-1.608;2023-12-20T04:39:30;20.20;49.70
49379;DHT22;35254;47.990;-1.608;2023-12-20T04:41:55;20.20;49.70
49379;DHT22;35254;47.990;-1.608;2023-12-20T04:44:21;20.20;49.60
49379;DHT22;35254;47.990;-1.608;2023-12-20T04:46:46;20.20;49.60
49379;DHT22;35254;47.990;-1.608;2023-12-20T04:49:12;20.20;49.60
49379;DHT22;35254;47.990;-1.608;2023-12-20T04:51:38;20.20;49.60
49379;DHT22;35254;47.990;-1.608;2023-12-20T04:54:04;20.20;49.50
49379;DHT22;35254;47.990;-1.608;2023-12-20T04:56:29;20.20;49.60
49379;DHT22;35254;47.990;-1.608;2023-12-20T04:58:55;20.20;49.50
49379;DHT22;35254;47.990;-1.608;2023-12-20T05:01:20;20.20;49.50
49379;DHT22;35254;47.990;-1.608;2023-12-20T05:03:46;20.20;49.60
49379;DHT22;35254;47.990;-1.608;2023-12-20T05:06:12;20.20;49.60
49379;DHT22;35254;47.990;-1.608;2023-12-20T05:08:38;20.20;49.60
49379;DHT22;35254;47.990;-1.608;2023-12-20T05:11:04;20.20;49.60
49379;DHT22;35254;47.990;-1.608;2023-12-20T05:13:30;20.20;49.60
49379;DHT22;35254;47.990;-1.608;2023-12-20T05:15:55;20.20;49.60
49379;DHT22;35254;47.990;-1.608;2023-12-20T05:18:21;20.20;49.50
49379;DHT22;35254;47.990;-1.608;2023-12-20T05:20:49;20.20;49.50
49379;DHT22;35254;47.990;-1.608;2023-12-20T05:23:15;20.20;49.50
49379;DHT22;35254;47.990;-1.608;2023-12-20T05:25:40;20.20;49.50
49379;DHT22;35254;47.990;-1.608;2023-12-20T05:28:06;20.20;49.50
49379;DHT22;35254;47.990;-1.608;2023-12-20T05:30:32;20.20;49.50
49379;DHT22;35254;47.990;-1.608;2023-12-20T05:32:57;20.20;49.50
49379;DHT22;35254;47.990;-1.608;2023-12-20T05:35:23;20.20;49.50
49379;DHT22;35254;47.990;-1.608;2023-12-20T05:37:49;20.20;49.40
49379;DHT22;35254;47.990;-1.608;2023-12-20T05:40:15;20.20;49.40
49379;DHT22;35254;47.990;-1.608;2023-12-20T05:42:40;20.20;49.50
49379;DHT22;35254;47.990;-1.608;2023-12-20T05:45:06;20.20;49.40
49379;DHT22;35254;47.990;-1.608;2023-12-20T05:47:32;20.20;49.50
49379;DHT22;35254;47.990;-1.608;2023-12-20T05:49:58;20.20;49.50
49379;DHT22;35254;47.990;-1.608;2023-12-20T05:52:24;20.20;49.50
49379;DHT22;35254;47.990;-1.608;2023-12-20T05:54:49;20.20;49.50
49379;DHT22;35254;47.990;-1.608;2023-12-20T05:57:15;20.20;49.40
49379;DHT22;35254;47.990;-1.608;2023-12-20T05:59:41;20.20;49.50
49379;DHT22;35254;47.990;-1.608;2023-12-20T06:02:06;20.20;49.50
49379;DHT22;35254;47.990;-1.608;2023-12-20T06:04:32;20.20;49.60
49379;DHT22;35254;47.990;-1.608;2023-12-20T06:06:58;20.20;49.40
49379;DHT22;35254;47.990;-1.608;2023-12-20T06:09:26;20.20;49.50
49379;DHT22;35254;47.990;-1.608;2023-12-20T06:11:52;20.20;49.50
49379;DHT22;35254;47.990;-1.608;2023-12-20T06:14:18;20.20;49.50
49379;DHT22;35254;47.990;-1.608;2023-12-20T06:16:43;20.20;49.50
49379;DHT22;35254;47.990;-1.608;2023-12-20T06:19:10;20.20;49.50
49379;DHT22;35254;47.990;-1.608;2023-12-20T06:21:36;20.20;49.50
49379;DHT22;35254;47.990;-1.608;2023-12-20T06:24:01;20.20;49.60
49379;DHT22;35254;47.990;-1.608;2023-12-20T06:26:27;20.20;49.60
49379;DHT22;35254;47.990;-1.608;2023-12-20T06:28:53;20.20;49.60
49379;DHT22;35254;47.990;-1.608;2023-12-20T06:31:18;20.30;49.60
49379;DHT22;35254;47.990;-1.608;2023-12-20T06:33:44;20.20;49.60
49379;DHT22;35254;47.990;-1.608;2023-12-20T06:36:13;20.30;49.70
49379;DHT22;35254;47.990;-1.608;2023-12-20T06:38:39;20.30;49.60
49379;DHT22;35254;47.990;-1.608;2023-12-20T06:41:05;20.30;49.70
49379;DHT22;35254;47.990;-1.608;2023-12-20T06:43:31;20.30;49.70
49379;DHT22;35254;47.990;-1.608;2023-12-20T06:45:57;20.30;49.70
49379;DHT22;35254;47.990;-1.608;2023-12-20T06:48:23;20.30;49.70
49379;DHT22;35254;47.990;-1.608;2023-12-20T06:50:49;20.30;49.50
49379;DHT22;35254;47.990;-1.608;2023-12-20T06:53:15;20.30;49.40
49379;DHT22;35254;47.990;-1.608;2023-12-20T06:55:40;20.30;49.40
49379;DHT22;35254;47.990;-1.608;2023-12-20T06:58:06;20.30;49.30
49379;DHT22;35254;47.990;-1.608;2023-12-20T07:00:32;20.30;49.30
49379;DHT22;35254;47.990;-1.608;2023-12-20T07:02:58;20.30;49.30
49379;DHT22;35254;47.990;-1.608;2023-12-20T07:05:24;20.30;49.20
49379;DHT22;35254;47.990;-1.608;2023-12-20T07:07:50;20.30;49.20
49379;DHT22;35254;47.990;-1.608;2023-12-20T07:10:15;20.30;49.20
49379;DHT22;35254;47.990;-1.608;2023-12-20T07:12:41;20.30;49.20
49379;DHT22;35254;47.990;-1.608;2023-12-20T07:15:07;20.30;49.20
49379;DHT22;35254;47.990;-1.608;2023-12-20T07:17:33;20.30;49.30
49379;DHT22;35254;47.990;-1.608;2023-12-20T07:19:59;20.30;49.30
49379;DHT22;35254;47.990;-1.608;2023-12-20T07:22:29;20.30;49.30
49379;DHT22;35254;47.990;-1.608;2023-12-20T07:24:57;20.30;49.30
49379;DHT22;35254;47.990;-1.608;2023-12-20T07:27:23;20.30;49.40
49379;DHT22;35254;47.990;-1.608;2023-12-20T07:29:48;20.30;49.30
49379;DHT22;35254;47.990;-1.608;2023-12-20T07:32:14;20.30;49.50
49379;DHT22;35254;47.990;-1.608;2023-12-20T07:34:39;20.30;49.90
49379;DHT22;35254;47.990;-1.608;2023-12-20T07:37:05;20.30;49.80
49379;DHT22;35254;47.990;-1.608;2023-12-20T07:39:30;20.30;49.90
49379;DHT22;35254;47.990;-1.608;2023-12-20T07:41:56;20.40;49.90
49379;DHT22;35254;47.990;-1.608;2023-12-20T07:44:22;20.30;49.80
49379;DHT22;35254;47.990;-1.608;2023-12-20T07:46:47;20.30;50.00
49379;DHT22;35254;47.990;-1.608;2023-12-20T07:49:14;20.40;50.00
49379;DHT22;35254;47.990;-1.608;2023-12-20T07:51:39;20.40;50.00
49379;DHT22;35254;47.990;-1.608;2023-12-20T07:54:05;20.40;50.00
49379;DHT22;35254;47.990;-1.608;2023-12-20T07:56:31;20.40;49.90
49379;DHT22;35254;47.990;-1.608;2023-12-20T07:58:56;20.40;49.90
49379;DHT22;35254;47.990;-1.608;2023-12-20T08:01:22;20.40;49.90
49379;DHT22;35254;47.990;-1.608;2023-12-20T08:03:49;20.40;49.80
49379;DHT22;35254;47.990;-1.608;2023-12-20T08:06:15;20.40;49.80
49379;DHT22;35254;47.990;-1.608;2023-12-20T08:08:42;20.40;49.70
49379;DHT22;35254;47.990;-1.608;2023-12-20T08:11:08;20.40;49.60
49379;DHT22;35254;47.990;-1.608;2023-12-20T08:13:33;20.40;49.60
49379;DHT22;35254;47.990;-1.608;2023-12-20T08:15:59;20.40;49.60
49379;DHT22;35254;47.990;-1.608;2023-12-20T08:18:25;20.40;49.60
49379;DHT22;35254;47.990;-1.608;2023-12-20T08:20:50;20.50;49.50
49379;DHT22;35254;47.990;-1.608;2023-12-20T08:23:18;20.50;49.50
49379;DHT22;35254;47.990;-1.608;2023-12-20T08:25:44;20.50;49.50
49379;DHT22;35254;47.990;-1.608;2023-12-20T08:28:10;20.50;49.40
49379;DHT22;35254;47.990;-1.608;2023-12-20T08:30:35;20.40;49.40
49379;DHT22;35254;47.990;-1.608;2023-12-20T08:33:01;20.50;49.40
49379;DHT22;35254;47.990;-1.608;2023-12-20T08:35:28;20.50;49.40
49379;DHT22;35254;47.990;-1.608;2023-12-20T08:37:53;20.50;49.30
49379;DHT22;35254;47.990;-1.608;2023-12-20T08:40:19;20.50;49.30
49379;DHT22;35254;47.990;-1.608;2023-12-20T08:42:45;20.60;49.30
49379;DHT22;35254;47.990;-1.608;2023-12-20T08:45:11;20.60;49.30
49379;DHT22;35254;47.990;-1.608;2023-12-20T08:47:37;20.60;49.40
49379;DHT22;35254;47.990;-1.608;2023-12-20T08:50:03;20.60;49.40
49379;DHT22;35254;47.990;-1.608;2023-12-20T08:52:29;20.70;49.50
49379;DHT22;35254;47.990;-1.608;2023-12-20T08:54:55;20.60;49.50
49379;DHT22;35254;47.990;-1.608;2023-12-20T08:57:21;20.60;49.50
49379;DHT22;35254;47.990;-1.608;2023-12-20T08:59:50;20.70;49.50
49379;DHT22;35254;47.990;-1.608;2023-12-20T09:02:16;20.70;49.60
49379;DHT22;35254;47.990;-1.608;2023-12-20T09:04:42;20.70;49.50
49379;DHT22;35254;47.990;-1.608;2023-12-20T09:07:21;20.70;49.60
49379;DHT22;35254;47.990;-1.608;2023-12-20T09:09:47;20.70;49.60
49379;DHT22;35254;47.990;-1.608;2023-12-20T09:12:12;20.70;49.60
49379;DHT22;35254;47.990;-1.608;2023-12-20T09:14:38;20.70;49.60
49379;DHT22;35254;47.990;-1.608;2023-12-20T09:17:03;20.70;49.50
49379;DHT22;35254;47.990;-1.608;2023-12-20T09:19:29;20.70;49.60
49379;DHT22;35254;47.990;-1.608;2023-12-20T09:21:55;20.70;49.50
49379;DHT22;35254;47.990;-1.608;2023-12-20T09:24:20;20.80;49.60
49379;DHT22;35254;47.990;-1.608;2023-12-20T09:26:46;20.80;49.60
49379;DHT22;35254;47.990;-1.608;2023-12-20T09:29:12;20.80;49.70
49379;DHT22;35254;47.990;-1.608;2023-12-20T09:31:41;20.80;49.70
49379;DHT22;35254;47.990;-1.608;2023-12-20T09:34:07;20.80;49.60
49379;DHT22;35254;47.990;-1.608;2023-12-20T09:36:32;20.80;49.70
49379;DHT22;35254;47.990;-1.608;2023-12-20T09:39:01;20.90;49.70
49379;DHT22;35254;47.990;-1.608;2023-12-20T09:41:29;20.90;49.70
49379;DHT22;35254;47.990;-1.608;2023-12-20T09:43:58;20.90;49.70
49379;DHT22;35254;47.990;-1.608;2023-12-20T09:46:29;20.90;49.60
49379;DHT22;35254;47.990;-1.608;2023-12-20T09:49:00;20.90;49.70
49379;DHT22;35254;47.990;-1.608;2023-12-20T09:51:27;21.00;49.70
49379;DHT22;35254;47.990;-1.608;2023-12-20T09:53:54;21.00;49.60
49379;DHT22;35254;47.990;-1.608;2023-12-20T09:56:21;21.00;49.70
49379;DHT22;35254;47.990;-1.608;2023-12-20T09:58:47;21.00;49.60
49379;DHT22;35254;47.990;-1.608;2023-12-20T10:01:14;21.00;49.50
49379;DHT22;35254;47.990;-1.608;2023-12-20T10:03:41;21.00;49.50
49379;DHT22;35254;47.990;-1.608;2023-12-20T10:06:07;21.10;49.50
49379;DHT22;35254;47.990;-1.608;2023-12-20T10:08:32;21.10;49.20
49379;DHT22;35254;47.990;-1.608;2023-12-20T10:10:58;21.00;49.30
49379;DHT22;35254;47.990;-1.608;2023-12-20T10:13:28;21.10;48.60
49379;DHT22;35254;47.990;-1.608;2023-12-20T10:15:55;21.10;48.10
49379;DHT22;35254;47.990;-1.608;2023-12-20T10:18:21;21.10;47.90
49379;DHT22;35254;47.990;-1.608;2023-12-20T10:20:47;21.10;47.70
49379;DHT22;35254;47.990;-1.608;2023-12-20T10:23:13;21.20;47.50
49379;DHT22;35254;47.990;-1.608;2023-12-20T10:25:40;21.20;47.60
49379;DHT22;35254;47.990;-1.608;2023-12-20T10:28:12;21.20;47.70
49379;DHT22;35254;47.990;-1.608;2023-12-20T10:30:39;21.20;47.80
49379;DHT22;35254;47.990;-1.608;2023-12-20T10:33:08;21.20;47.90
49379;DHT22;35254;47.990;-1.608;2023-12-20T10:35:34;21.20;48.00
49379;DHT22;35254;47.990;-1.608;2023-12-20T10:38:03;21.20;48.00
49379;DHT22;35254;47.990;-1.608;2023-12-20T10:40:31;21.20;48.10
49379;DHT22;35254;47.990;-1.608;2023-12-20T10:42:58;21.20;48.10
49379;DHT22;35254;47.990;-1.608;2023-12-20T10:45:25;21.30;48.20
49379;DHT22;35254;47.990;-1.608;2023-12-20T10:47:51;21.20;48.10
49379;DHT22;35254;47.990;-1.608;2023-12-20T10:50:19;21.30;48.10
49379;DHT22;35254;47.990;-1.608;2023-12-20T10:52:46;21.40;48.10
49379;DHT22;35254;47.990;-1.608;2023-12-20T10:55:12;21.40;48.10
49379;DHT22;35254;47.990;-1.608;2023-12-20T10:57:38;21.40;48.00
49379;DHT22;35254;47.990;-1.608;2023-12-20T11:00:06;21.50;48.10
49379;DHT22;35254;47.990;-1.608;2023-12-20T11:02:38;21.50;48.10
49379;DHT22;35254;47.990;-1.608;2023-12-20T11:05:06;21.50;48.00
49379;DHT22;35254;47.990;-1.608;2023-12-20T11:07:50;21.50;48.10
49379;DHT22;35254;47.990;-1.608;2023-12-20T11:10:25;21.50;48.00
49379;DHT22;35254;47.990;-1.608;2023-12-20T11:12:55;21.50;48.00
49379;DHT22;35254;47.990;-1.608;2023-12-20T11:15:23;21.60;48.00
49379;DHT22;35254;47.990;-1.608;2023-12-20T11:17:57;21.60;48.00
49379;DHT22;35254;47.990;-1.608;2023-12-20T11:20:24;21.70;48.00
49379;DHT22;35254;47.990;-1.608;2023-12-20T11:23:00;21.60;48.00
49379;DHT22;35254;47.990;-1.608;2023-12-20T11:25:26;21.70;47.90
49379;DHT22;35254;47.990;-1.608;2023-12-20T11:28:22;21.70;48.00
49379;DHT22;35254;47.990;-1.608;2023-12-20T11:30:51;21.70;48.00
49379;DHT22;35254;47.990;-1.608;2023-12-20T11:33:17;21.70;47.90
49379;DHT22;35254;47.990;-1.608;2023-12-20T11:35:46;21.70;47.90
49379;DHT22;35254;47.990;-1.608;2023-12-20T11:38:14;21.70;47.90
49379;DHT22;35254;47.990;-1.608;2023-12-20T11:40:41;21.70;47.90
49379;DHT22;35254;47.990;-1.608;2023-12-20T11:43:07;21.80;47.90
49379;DHT22;35254;47.990;-1.608;2023-12-20T11:45:33;21.70;47.90
49379;DHT22;35254;47.990;-1.608;2023-12-20T11:48:03;21.80;48.10
49379;DHT22;35254;47.990;-1.608;2023-12-20T11:50:29;21.80;48.20
49379;DHT22;35254;47.990;-1.608;2023-12-20T11:52:56;21.80;48.20
49379;DHT22;35254;47.990;-1.608;2023-12-20T11:55:25;21.80;48.30
49379;DHT22;35254;47.990;-1.608;2023-12-20T11:57:51;21.80;48.20
49379;DHT22;35254;47.990;-1.608;2023-12-20T12:00:18;21.90;48.30
49379;DHT22;35254;47.990;-1.608;2023-12-20T12:02:45;21.80;48.20
49379;DHT22;35254;47.990;-1.608;2023-12-20T12:05:20;21.90;48.20
49379;DHT22;35254;47.990;-1.608;2023-12-20T12:07:45;21.90;48.60
49379;DHT22;35254;47.990;-1.608;2023-12-20T12:10:11;21.90;48.50
49379;DHT22;35254;47.990;-1.608;2023-12-20T12:12:37;21.90;48.40
49379;DHT22;35254;47.990;-1.608;2023-12-20T12:15:03;21.90;48.40
49379;DHT22;35254;47.990;-1.608;2023-12-20T12:17:29;21.90;48.30
49379;DHT22;35254;47.990;-1.608;2023-12-20T12:20:03;22.00;48.20
49379;DHT22;35254;47.990;-1.608;2023-12-20T12:22:29;22.00;48.30
49379;DHT22;35254;47.990;-1.608;2023-12-20T12:24:59;22.00;48.20
49379;DHT22;35254;47.990;-1.608;2023-12-20T12:27:27;22.00;48.20
49379;DHT22;35254;47.990;-1.608;2023-12-20T12:30:03;22.00;48.10
49379;DHT22;35254;47.990;-1.608;2023-12-20T12:32:29;22.10;48.20
49379;DHT22;35254;47.990;-1.608;2023-12-20T12:34:55;22.10;48.20
49379;DHT22;35254;47.990;-1.608;2023-12-20T12:37:22;22.10;48.20
49379;DHT22;35254;47.990;-1.608;2023-12-20T12:39:49;22.10;48.20
49379;DHT22;35254;47.990;-1.608;2023-12-20T12:42:15;22.10;48.20
49379;DHT22;35254;47.990;-1.608;2023-12-20T12:44:40;22.10;48.30
49379;DHT22;35254;47.990;-1.608;2023-12-20T12:47:06;22.10;48.30
49379;DHT22;35254;47.990;-1.608;2023-12-20T12:49:33;22.10;48.40
49379;DHT22;35254;47.990;-1.608;2023-12-20T12:51:59;22.10;48.50
49379;DHT22;35254;47.990;-1.608;2023-12-20T12:54:24;22.10;48.50
49379;DHT22;35254;47.990;-1.608;2023-12-20T12:56:50;22.10;48.50
49379;DHT22;35254;47.990;-1.608;2023-12-20T12:59:18;22.10;48.60
49379;DHT22;35254;47.990;-1.608;2023-12-20T13:01:44;22.00;48.50
49379;DHT22;35254;47.990;-1.608;2023-12-20T13:04:09;22.00;48.50
49379;DHT22;35254;47.990;-1.608;2023-12-20T13:06:38;22.00;48.60
49379;DHT22;35254;47.990;-1.608;2023-12-20T13:09:04;22.10;48.60
49379;DHT22;35254;47.990;-1.608;2023-12-20T13:11:30;22.10;48.60
49379;DHT22;35254;47.990;-1.608;2023-12-20T13:13:57;22.10;48.60
49379;DHT22;35254;47.990;-1.608;2023-12-20T13:16:23;22.10;48.70
49379;DHT22;35254;47.990;-1.608;2023-12-20T13:18:50;22.10;48.60
49379;DHT22;35254;47.990;-1.608;2023-12-20T13:21:15;22.10;48.70
49379;DHT22;35254;47.990;-1.608;2023-12-20T13:23:42;22.10;48.70
49379;DHT22;35254;47.990;-1.608;2023-12-20T13:26:08;22.10;48.70
49379;DHT22;35254;47.990;-1.608;2023-12-20T13:28:33;22.10;48.70
49379;DHT22;35254;47.990;-1.608;2023-12-20T13:30:59;22.10;48.80
49379;DHT22;35254;47.990;-1.608;2023-12-20T13:33:25;22.10;48.80
49379;DHT22;35254;47.990;-1.608;2023-12-20T13:35:51;22.10;48.90
49379;DHT22;35254;47.990;-1.608;2023-12-20T13:38:17;22.10;48.90
49379;DHT22;35254;47.990;-1.608;2023-12-20T13:40:42;22.10;48.80
49379;DHT22;35254;47.990;-1.608;2023-12-20T13:43:08;22.10;48.90
49379;DHT22;35254;47.990;-1.608;2023-12-20T13:45:34;22.10;48.80
49379;DHT22;35254;47.990;-1.608;2023-12-20T13:48:00;22.10;48.80
49379;DHT22;35254;47.990;-1.608;2023-12-20T13:50:25;22.10;48.80
49379;DHT22;35254;47.990;-1.608;2023-12-20T13:52:51;22.10;48.80
49379;DHT22;35254;47.990;-1.608;2023-12-20T13:55:17;22.10;48.80
49379;DHT22;35254;47.990;-1.608;2023-12-20T13:57:43;22.20;48.80
49379;DHT22;35254;47.990;-1.608;2023-12-20T14:00:09;22.10;48.80
49379;DHT22;35254;47.990;-1.608;2023-12-20T14:02:40;22.20;48.80
49379;DHT22;35254;47.990;-1.608;2023-12-20T14:05:07;22.10;48.80
49379;DHT22;35254;47.990;-1.608;2023-12-20T14:07:33;22.10;48.80
49379;DHT22;35254;47.990;-1.608;2023-12-20T14:09:58;22.10;48.80
49379;DHT22;35254;47.990;-1.608;2023-12-20T14:12:25;22.10;48.80
49379;DHT22;35254;47.990;-1.608;2023-12-20T14:14:50;22.10;48.80
49379;DHT22;35254;47.990;-1.608;2023-12-20T14:17:17;22.10;48.80
49379;DHT22;35254;47.990;-1.608;2023-12-20T14:19:43;22.10;48.70
49379;DHT22;35254;47.990;-1.608;2023-12-20T14:22:08;22.20;48.80
49379;DHT22;35254;47.990;-1.608;2023-12-20T14:24:35;22.20;48.70
49379;DHT22;35254;47.990;-1.608;2023-12-20T14:27:01;22.20;48.70
49379;DHT22;35254;47.990;-1.608;2023-12-20T14:29:27;22.10;48.80
49379;DHT22;35254;47.990;-1.608;2023-12-20T14:31:53;22.10;48.80
49379;DHT22;35254;47.990;-1.608;2023-12-20T14:34:18;22.20;48.80
49379;DHT22;35254;47.990;-1.608;2023-12-20T14:36:44;22.20;48.90
49379;DHT22;35254;47.990;-1.608;2023-12-20T14:39:09;22.20;48.80
49379;DHT22;35254;47.990;-1.608;2023-12-20T14:41:38;22.20;48.90
49379;DHT22;35254;47.990;-1.608;2023-12-20T14:44:05;22.20;49.00
49379;DHT22;35254;47.990;-1.608;2023-12-20T14:46:31;22.20;48.90
49379;DHT22;35254;47.990;-1.608;2023-12-20T14:48:56;22.20;48.90
49379;DHT22;35254;47.990;-1.608;2023-12-20T14:51:22;22.20;49.00
49379;DHT22;35254;47.990;-1.608;2023-12-20T14:53:48;22.20;48.90
49379;DHT22;35254;47.990;-1.608;2023-12-20T14:56:13;22.20;48.90
49379;DHT22;35254;47.990;-1.608;2023-12-20T14:58:40;22.20;48.90
49379;DHT22;35254;47.990;-1.608;2023-12-20T15:01:05;22.20;48.90
49379;DHT22;35254;47.990;-1.608;2023-12-20T15:03:34;22.20;48.80
49379;DHT22;35254;47.990;-1.608;2023-12-20T15:06:00;22.20;48.80
49379;DHT22;35254;47.990;-1.608;2023-12-20T15:08:26;22.20;48.80
49379;DHT22;35254;47.990;-1.608;2023-12-20T15:10:51;22.10;48.80